Etusivu
METAR-TAF:

METAR-TAF

Lentoasemat :

Djanet, Algeria

Leveyspiiri: 24-33N, Pituuspiiri: 009-28E, korkeus merenpinnasta: 1054 m

Tämänhetkinen sää

Tämä raportti tehtiin 20 minuuttia sitten, kello 08.00 UTC
Tuuli 8 kn etelästä/kaakosta
Lämpötila 28°C
Kosteus 15%
Ilmanpaine 1020 hPa
Näkyvyys 10 km tai enemmän
ei pilviä alle 1500 m:ssä eikä cumulonimbus-pilviä

METAR: DAAJ 190800Z 15008KT CAVOK 28/M01 Q1020

Aika: 09:20 (08:20 UTC)

Sääennuste

Tämä raportti tehtiin 3 tuntia ja 20 minuuttia sitten, kello 05.00 UTC
Ennuste voimassa 19. päivästä klo 06 UTC - 20. päivään klo 06 UTC
Tuuli 12 kn idästä
Näkyvyys 10 km tai enemmän
ei pilviä alle 1500 m:ssä eikä cumulonimbus-pilviä
Tulossa
19. päivästä klo 08 UTC - 19. päivään klo 11 UTC
Tuuli 8 kn lounaasta
Tulossa
19. päivästä klo 18 UTC - 19. päivään klo 21 UTC
Tuuli 10 kn idästä

TAF: DAAJ 190500Z 1906/2006 10012KT CAVOK BECMG 1908/1911 22008KT BECMG 1918/1921 10010KT

Säähavainnot ja -ennusteet yli 4000 lentoasemalta (METAR- ja TAF-raportit).

Käytössä olevat sääasemat on merkitty karttaan keltaisilla ja punaisilla pisteillä.

Aseta hiiri pisteen päälle nähdäksesi sääaseman nimen.

Klikkaa sitten nähdäksesi säähavainnot ja -ennusteet.

Kartan vaihtaminen: klikkaa mustalla rastilla varustettuja vihreitä pisteitä, niin voit zoomata sisään; viivalla varustettua vihreää pistettä, niin voit zoomata ulos tai vihreitä nuolia, niin pääset viereisille kartoille.


METAR-TAF: